sensor_id;sensor_type;location;lat;lon;timestamp;P1;durP1;ratioP1;P2;durP2;ratioP2
41233;SDS011;26968;42.686;23.352;2023-07-20T00:01:25;11.75;;;3.00;;
41233;SDS011;26968;42.686;23.352;2023-07-20T00:03:51;10.05;;;3.00;;
41233;SDS011;26968;42.686;23.352;2023-07-20T00:06:22;11.30;;;2.90;;
41233;SDS011;26968;42.686;23.352;2023-07-20T00:08:53;11.10;;;2.72;;
41233;SDS011;26968;42.686;23.352;2023-07-20T00:11:19;13.10;;;2.88;;
41233;SDS011;26968;42.686;23.352;2023-07-20T00:13:44;12.82;;;2.78;;
41233;SDS011;26968;42.686;23.352;2023-07-20T00:16:10;16.80;;;3.22;;
41233;SDS011;26968;42.686;23.352;2023-07-20T00:18:35;11.65;;;3.05;;
41233;SDS011;26968;42.686;23.352;2023-07-20T00:21:01;10.57;;;2.90;;
41233;SDS011;26968;42.686;23.352;2023-07-20T00:23:26;16.05;;;3.72;;
41233;SDS011;26968;42.686;23.352;2023-07-20T00:25:52;10.90;;;2.72;;
41233;SDS011;26968;42.686;23.352;2023-07-20T00:28:18;13.27;;;3.10;;
41233;SDS011;26968;42.686;23.352;2023-07-20T00:30:43;12.77;;;3.17;;
41233;SDS011;26968;42.686;23.352;2023-07-20T00:33:10;11.95;;;2.83;;
41233;SDS011;26968;42.686;23.352;2023-07-20T00:35:36;12.90;;;2.63;;
41233;SDS011;26968;42.686;23.352;2023-07-20T00:38:02;11.93;;;2.92;;
41233;SDS011;26968;42.686;23.352;2023-07-20T00:40:28;6.55;;;2.45;;
41233;SDS011;26968;42.686;23.352;2023-07-20T00:42:54;13.52;;;3.00;;
41233;SDS011;26968;42.686;23.352;2023-07-20T00:45:19;11.68;;;3.13;;
41233;SDS011;26968;42.686;23.352;2023-07-20T00:47:44;17.55;;;3.38;;
41233;SDS011;26968;42.686;23.352;2023-07-20T00:50:10;14.63;;;2.88;;
41233;SDS011;26968;42.686;23.352;2023-07-20T00:52:35;14.45;;;2.70;;
41233;SDS011;26968;42.686;23.352;2023-07-20T00:55:04;9.98;;;2.40;;
41233;SDS011;26968;42.686;23.352;2023-07-20T00:57:31;14.32;;;2.42;;
41233;SDS011;26968;42.686;23.352;2023-07-20T00:59:57;12.77;;;2.65;;
41233;SDS011;26968;42.686;23.352;2023-07-20T01:02:22;11.73;;;2.33;;
41233;SDS011;26968;42.686;23.352;2023-07-20T01:04:48;17.58;;;2.85;;
41233;SDS011;26968;42.686;23.352;2023-07-20T01:09:50;11.10;;;3.25;;
41233;SDS011;26968;42.686;23.352;2023-07-20T01:14:52;11.88;;;3.08;;
41233;SDS011;26968;42.686;23.352;2023-07-20T01:17:19;13.35;;;3.00;;
41233;SDS011;26968;42.686;23.352;2023-07-20T01:19:44;11.80;;;3.35;;
41233;SDS011;26968;42.686;23.352;2023-07-20T01:33:05;11.07;;;2.45;;
41233;SDS011;26968;42.686;23.352;2023-07-20T01:35:32;13.05;;;3.30;;
41233;SDS011;26968;42.686;23.352;2023-07-20T01:37:59;10.52;;;2.67;;
41233;SDS011;26968;42.686;23.352;2023-07-20T01:40:25;18.88;;;3.22;;
41233;SDS011;26968;42.686;23.352;2023-07-20T01:42:52;19.95;;;3.50;;
41233;SDS011;26968;42.686;23.352;2023-07-20T01:45:18;11.20;;;3.38;;
41233;SDS011;26968;42.686;23.352;2023-07-20T01:47:44;14.13;;;2.97;;
41233;SDS011;26968;42.686;23.352;2023-07-20T01:50:10;16.05;;;3.28;;
41233;SDS011;26968;42.686;23.352;2023-07-20T01:52:35;12.25;;;2.85;;
41233;SDS011;26968;42.686;23.352;2023-07-20T01:55:01;11.40;;;2.22;;
41233;SDS011;26968;42.686;23.352;2023-07-20T01:57:29;8.20;;;3.13;;
41233;SDS011;26968;42.686;23.352;2023-07-20T01:59:54;13.20;;;2.90;;
41233;SDS011;26968;42.686;23.352;2023-07-20T02:02:20;10.95;;;3.03;;
41233;SDS011;26968;42.686;23.352;2023-07-20T02:04:45;11.63;;;2.97;;
41233;SDS011;26968;42.686;23.352;2023-07-20T02:07:11;8.15;;;2.47;;
41233;SDS011;26968;42.686;23.352;2023-07-20T02:09:36;7.68;;;2.50;;
41233;SDS011;26968;42.686;23.352;2023-07-20T02:12:02;13.20;;;2.95;;
41233;SDS011;26968;42.686;23.352;2023-07-20T02:14:27;16.40;;;3.30;;
41233;SDS011;26968;42.686;23.352;2023-07-20T02:16:53;12.85;;;3.38;;
41233;SDS011;26968;42.686;23.352;2023-07-20T02:19:22;13.63;;;3.10;;
41233;SDS011;26968;42.686;23.352;2023-07-20T02:21:49;15.77;;;2.95;;
41233;SDS011;26968;42.686;23.352;2023-07-20T02:24:15;6.72;;;2.95;;
41233;SDS011;26968;42.686;23.352;2023-07-20T02:26:40;11.38;;;2.85;;
41233;SDS011;26968;42.686;23.352;2023-07-20T02:29:05;12.93;;;3.55;;
41233;SDS011;26968;42.686;23.352;2023-07-20T02:31:31;9.85;;;3.30;;
41233;SDS011;26968;42.686;23.352;2023-07-20T02:33:56;14.05;;;2.75;;
41233;SDS011;26968;42.686;23.352;2023-07-20T02:36:22;16.02;;;3.90;;
41233;SDS011;26968;42.686;23.352;2023-07-20T02:38:47;13.73;;;3.33;;
41233;SDS011;26968;42.686;23.352;2023-07-20T02:41:13;16.63;;;3.47;;
41233;SDS011;26968;42.686;23.352;2023-07-20T02:43:39;11.50;;;3.70;;
41233;SDS011;26968;42.686;23.352;2023-07-20T02:46:04;13.23;;;3.38;;
41233;SDS011;26968;42.686;23.352;2023-07-20T02:48:29;9.90;;;2.63;;
41233;SDS011;26968;42.686;23.352;2023-07-20T02:50:55;13.63;;;3.42;;
41233;SDS011;26968;42.686;23.352;2023-07-20T02:53:20;13.25;;;2.92;;
41233;SDS011;26968;42.686;23.352;2023-07-20T02:55:46;10.73;;;3.50;;
41233;SDS011;26968;42.686;23.352;2023-07-20T02:58:12;13.10;;;3.50;;
41233;SDS011;26968;42.686;23.352;2023-07-20T03:00:38;11.40;;;3.60;;
41233;SDS011;26968;42.686;23.352;2023-07-20T03:03:03;12.38;;;3.15;;
41233;SDS011;26968;42.686;23.352;2023-07-20T03:05:29;12.95;;;4.07;;
41233;SDS011;26968;42.686;23.352;2023-07-20T03:07:55;10.95;;;3.30;;
41233;SDS011;26968;42.686;23.352;2023-07-20T03:10:21;16.63;;;3.38;;
41233;SDS011;26968;42.686;23.352;2023-07-20T03:12:46;14.93;;;3.42;;
41233;SDS011;26968;42.686;23.352;2023-07-20T03:15:12;12.90;;;3.75;;
41233;SDS011;26968;42.686;23.352;2023-07-20T03:17:37;11.15;;;3.55;;
41233;SDS011;26968;42.686;23.352;2023-07-20T03:20:03;11.02;;;2.95;;
41233;SDS011;26968;42.686;23.352;2023-07-20T03:22:30;14.90;;;4.03;;
41233;SDS011;26968;42.686;23.352;2023-07-20T03:24:55;15.07;;;3.67;;
41233;SDS011;26968;42.686;23.352;2023-07-20T03:27:21;13.73;;;3.78;;
41233;SDS011;26968;42.686;23.352;2023-07-20T03:29:46;14.00;;;3.88;;
41233;SDS011;26968;42.686;23.352;2023-07-20T03:32:11;15.57;;;3.75;;
41233;SDS011;26968;42.686;23.352;2023-07-20T03:34:37;12.45;;;3.38;;
41233;SDS011;26968;42.686;23.352;2023-07-20T03:37:02;18.20;;;3.95;;
41233;SDS011;26968;42.686;23.352;2023-07-20T03:39:30;16.90;;;3.40;;
41233;SDS011;26968;42.686;23.352;2023-07-20T03:41:55;9.60;;;3.70;;
41233;SDS011;26968;42.686;23.352;2023-07-20T03:44:22;14.73;;;2.97;;
41233;SDS011;26968;42.686;23.352;2023-07-20T03:46:47;22.98;;;3.90;;
41233;SDS011;26968;42.686;23.352;2023-07-20T03:49:13;16.52;;;4.43;;
41233;SDS011;26968;42.686;23.352;2023-07-20T03:51:39;15.40;;;3.92;;
41233;SDS011;26968;42.686;23.352;2023-07-20T03:54:05;9.75;;;3.35;;
41233;SDS011;26968;42.686;23.352;2023-07-20T03:56:30;14.98;;;4.35;;
41233;SDS011;26968;42.686;23.352;2023-07-20T03:59:00;13.35;;;3.95;;
41233;SDS011;26968;42.686;23.352;2023-07-20T04:01:25;14.35;;;3.47;;
41233;SDS011;26968;42.686;23.352;2023-07-20T04:03:51;16.48;;;4.47;;
41233;SDS011;26968;42.686;23.352;2023-07-20T04:06:16;17.88;;;3.85;;
41233;SDS011;26968;42.686;23.352;2023-07-20T04:08:42;14.05;;;3.88;;
41233;SDS011;26968;42.686;23.352;2023-07-20T04:11:08;19.30;;;3.40;;
41233;SDS011;26968;42.686;23.352;2023-07-20T04:13:33;19.85;;;3.38;;
41233;SDS011;26968;42.686;23.352;2023-07-20T04:15:59;13.35;;;3.08;;
41233;SDS011;26968;42.686;23.352;2023-07-20T04:18:25;9.48;;;3.85;;
41233;SDS011;26968;42.686;23.352;2023-07-20T04:20:52;16.63;;;3.55;;
41233;SDS011;26968;42.686;23.352;2023-07-20T04:23:17;14.38;;;3.40;;
41233;SDS011;26968;42.686;23.352;2023-07-20T04:25:43;10.18;;;3.25;;
41233;SDS011;26968;42.686;23.352;2023-07-20T04:28:09;10.73;;;3.03;;
41233;SDS011;26968;42.686;23.352;2023-07-20T04:30:35;12.95;;;4.15;;
41233;SDS011;26968;42.686;23.352;2023-07-20T04:33:01;19.45;;;3.95;;
41233;SDS011;26968;42.686;23.352;2023-07-20T04:38:13;17.88;;;4.15;;
41233;SDS011;26968;42.686;23.352;2023-07-20T04:40:46;15.52;;;4.05;;
41233;SDS011;26968;42.686;23.352;2023-07-20T04:43:16;10.33;;;3.30;;
41233;SDS011;26968;42.686;23.352;2023-07-20T04:45:42;15.68;;;3.67;;
41233;SDS011;26968;42.686;23.352;2023-07-20T04:48:09;11.82;;;3.75;;
41233;SDS011;26968;42.686;23.352;2023-07-20T04:50:42;13.35;;;3.92;;
41233;SDS011;26968;42.686;23.352;2023-07-20T04:53:09;12.02;;;4.10;;
41233;SDS011;26968;42.686;23.352;2023-07-20T04:55:36;14.65;;;4.55;;
41233;SDS011;26968;42.686;23.352;2023-07-20T04:58:02;14.10;;;4.55;;
41233;SDS011;26968;42.686;23.352;2023-07-20T05:00:29;20.30;;;4.80;;
41233;SDS011;26968;42.686;23.352;2023-07-20T05:02:55;15.55;;;3.95;;
41233;SDS011;26968;42.686;23.352;2023-07-20T05:05:20;13.80;;;4.07;;
41233;SDS011;26968;42.686;23.352;2023-07-20T05:07:46;13.35;;;4.07;;
41233;SDS011;26968;42.686;23.352;2023-07-20T05:10:11;14.07;;;4.55;;
41233;SDS011;26968;42.686;23.352;2023-07-20T05:12:37;18.63;;;3.92;;
41233;SDS011;26968;42.686;23.352;2023-07-20T05:15:02;20.55;;;4.90;;
41233;SDS011;26968;42.686;23.352;2023-07-20T05:17:29;17.13;;;4.60;;
41233;SDS011;26968;42.686;23.352;2023-07-20T05:19:54;15.90;;;4.53;;
41233;SDS011;26968;42.686;23.352;2023-07-20T05:22:19;18.05;;;4.55;;
41233;SDS011;26968;42.686;23.352;2023-07-20T05:24:45;12.80;;;3.90;;
41233;SDS011;26968;42.686;23.352;2023-07-20T05:27:10;17.00;;;4.40;;
41233;SDS011;26968;42.686;23.352;2023-07-20T05:29:36;13.40;;;4.43;;
41233;SDS011;26968;42.686;23.352;2023-07-20T05:32:01;14.65;;;4.10;;
41233;SDS011;26968;42.686;23.352;2023-07-20T05:34:28;13.82;;;4.78;;
41233;SDS011;26968;42.686;23.352;2023-07-20T05:37:08;15.13;;;4.53;;
41233;SDS011;26968;42.686;23.352;2023-07-20T05:39:34;15.98;;;4.15;;
41233;SDS011;26968;42.686;23.352;2023-07-20T05:41:59;13.05;;;4.03;;
41233;SDS011;26968;42.686;23.352;2023-07-20T05:44:25;14.05;;;4.65;;
41233;SDS011;26968;42.686;23.352;2023-07-20T05:46:50;16.92;;;3.92;;
41233;SDS011;26968;42.686;23.352;2023-07-20T05:49:16;16.30;;;5.55;;
41233;SDS011;26968;42.686;23.352;2023-07-20T05:51:41;23.95;;;5.07;;
41233;SDS011;26968;42.686;23.352;2023-07-20T05:54:06;19.67;;;4.72;;
41233;SDS011;26968;42.686;23.352;2023-07-20T05:56:33;14.88;;;4.50;;
41233;SDS011;26968;42.686;23.352;2023-07-20T05:58:58;17.23;;;4.90;;
41233;SDS011;26968;42.686;23.352;2023-07-20T06:01:23;19.05;;;5.35;;
41233;SDS011;26968;42.686;23.352;2023-07-20T06:03:52;19.10;;;5.32;;
41233;SDS011;26968;42.686;23.352;2023-07-20T06:06:18;16.55;;;5.00;;
41233;SDS011;26968;42.686;23.352;2023-07-20T06:08:44;18.17;;;5.40;;
41233;SDS011;26968;42.686;23.352;2023-07-20T06:11:09;17.10;;;5.10;;
41233;SDS011;26968;42.686;23.352;2023-07-20T06:13:35;15.23;;;4.88;;
41233;SDS011;26968;42.686;23.352;2023-07-20T06:16:01;19.00;;;5.88;;
41233;SDS011;26968;42.686;23.352;2023-07-20T06:18:27;14.45;;;4.88;;
41233;SDS011;26968;42.686;23.352;2023-07-20T06:20:53;21.15;;;4.93;;
41233;SDS011;26968;42.686;23.352;2023-07-20T06:23:19;16.77;;;5.00;;
41233;SDS011;26968;42.686;23.352;2023-07-20T06:25:45;15.13;;;5.07;;
41233;SDS011;26968;42.686;23.352;2023-07-20T06:28:11;20.95;;;4.55;;
41233;SDS011;26968;42.686;23.352;2023-07-20T06:30:37;19.60;;;5.53;;
41233;SDS011;26968;42.686;23.352;2023-07-20T06:33:02;22.88;;;5.32;;
41233;SDS011;26968;42.686;23.352;2023-07-20T06:35:28;18.23;;;5.93;;
41233;SDS011;26968;42.686;23.352;2023-07-20T06:37:53;19.55;;;5.13;;
41233;SDS011;26968;42.686;23.352;2023-07-20T06:40:18;13.40;;;4.70;;
41233;SDS011;26968;42.686;23.352;2023-07-20T06:42:44;15.10;;;4.95;;
41233;SDS011;26968;42.686;23.352;2023-07-20T06:45:10;19.58;;;5.15;;
41233;SDS011;26968;42.686;23.352;2023-07-20T06:47:38;19.10;;;4.97;;
41233;SDS011;26968;42.686;23.352;2023-07-20T06:50:07;18.05;;;5.63;;
41233;SDS011;26968;42.686;23.352;2023-07-20T06:52:34;15.27;;;5.28;;
41233;SDS011;26968;42.686;23.352;2023-07-20T06:54:59;26.80;;;6.40;;
41233;SDS011;26968;42.686;23.352;2023-07-20T06:57:25;19.85;;;7.68;;
41233;SDS011;26968;42.686;23.352;2023-07-20T06:59:51;13.07;;;5.47;;
41233;SDS011;26968;42.686;23.352;2023-07-20T07:02:16;24.75;;;6.07;;
41233;SDS011;26968;42.686;23.352;2023-07-20T07:04:42;14.88;;;6.03;;
41233;SDS011;26968;42.686;23.352;2023-07-20T07:07:08;24.40;;;5.70;;
41233;SDS011;26968;42.686;23.352;2023-07-20T07:09:34;22.55;;;6.60;;
41233;SDS011;26968;42.686;23.352;2023-07-20T07:12:00;27.70;;;6.28;;
41233;SDS011;26968;42.686;23.352;2023-07-20T07:14:25;19.80;;;6.10;;
41233;SDS011;26968;42.686;23.352;2023-07-20T07:16:50;17.27;;;5.97;;
41233;SDS011;26968;42.686;23.352;2023-07-20T07:19:16;22.42;;;5.65;;
41233;SDS011;26968;42.686;23.352;2023-07-20T07:21:41;20.13;;;5.40;;
41233;SDS011;26968;42.686;23.352;2023-07-20T07:24:07;17.40;;;5.35;;
41233;SDS011;26968;42.686;23.352;2023-07-20T07:26:33;16.73;;;5.00;;
41233;SDS011;26968;42.686;23.352;2023-07-20T07:28:58;22.27;;;5.30;;
41233;SDS011;26968;42.686;23.352;2023-07-20T07:31:28;17.77;;;4.80;;
41233;SDS011;26968;42.686;23.352;2023-07-20T07:33:55;21.45;;;4.72;;
41233;SDS011;26968;42.686;23.352;2023-07-20T07:36:20;15.95;;;5.03;;
41233;SDS011;26968;42.686;23.352;2023-07-20T07:38:46;17.05;;;4.75;;
41233;SDS011;26968;42.686;23.352;2023-07-20T07:41:11;18.63;;;5.35;;
41233;SDS011;26968;42.686;23.352;2023-07-20T07:43:37;18.83;;;4.95;;
41233;SDS011;26968;42.686;23.352;2023-07-20T07:46:03;19.08;;;5.75;;
41233;SDS011;26968;42.686;23.352;2023-07-20T07:48:29;21.17;;;6.00;;
41233;SDS011;26968;42.686;23.352;2023-07-20T07:50:54;18.38;;;5.32;;
41233;SDS011;26968;42.686;23.352;2023-07-20T07:53:20;23.48;;;7.05;;
41233;SDS011;26968;42.686;23.352;2023-07-20T07:55:47;22.45;;;6.22;;
41233;SDS011;26968;42.686;23.352;2023-07-20T07:58:13;21.00;;;6.57;;
41233;SDS011;26968;42.686;23.352;2023-07-20T08:00:39;18.98;;;5.38;;
41233;SDS011;26968;42.686;23.352;2023-07-20T08:03:06;22.02;;;4.93;;
41233;SDS011;26968;42.686;23.352;2023-07-20T08:05:32;13.25;;;4.82;;
41233;SDS011;26968;42.686;23.352;2023-07-20T08:08:00;18.27;;;5.70;;
41233;SDS011;26968;42.686;23.352;2023-07-20T08:10:25;21.48;;;5.15;;
41233;SDS011;26968;42.686;23.352;2023-07-20T08:12:51;18.02;;;5.25;;
41233;SDS011;26968;42.686;23.352;2023-07-20T08:15:17;19.20;;;4.65;;
41233;SDS011;26968;42.686;23.352;2023-07-20T08:17:42;21.10;;;5.68;;
41233;SDS011;26968;42.686;23.352;2023-07-20T08:20:09;14.55;;;4.55;;
41233;SDS011;26968;42.686;23.352;2023-07-20T08:22:37;16.17;;;4.68;;
41233;SDS011;26968;42.686;23.352;2023-07-20T08:25:04;21.55;;;4.88;;
41233;SDS011;26968;42.686;23.352;2023-07-20T08:27:33;23.73;;;4.95;;
41233;SDS011;26968;42.686;23.352;2023-07-20T08:29:58;27.02;;;4.93;;
41233;SDS011;26968;42.686;23.352;2023-07-20T08:32:24;18.48;;;4.28;;
41233;SDS011;26968;42.686;23.352;2023-07-20T08:34:50;11.98;;;3.60;;
41233;SDS011;26968;42.686;23.352;2023-07-20T08:37:16;12.77;;;4.20;;
41233;SDS011;26968;42.686;23.352;2023-07-20T08:39:41;21.15;;;4.25;;
41233;SDS011;26968;42.686;23.352;2023-07-20T08:42:07;20.35;;;3.90;;
41233;SDS011;26968;42.686;23.352;2023-07-20T08:44:36;13.98;;;3.88;;
41233;SDS011;26968;42.686;23.352;2023-07-20T08:47:04;18.52;;;3.63;;
41233;SDS011;26968;42.686;23.352;2023-07-20T08:49:32;20.85;;;3.65;;
41233;SDS011;26968;42.686;23.352;2023-07-20T08:51:57;11.88;;;3.00;;
41233;SDS011;26968;42.686;23.352;2023-07-20T08:54:24;18.65;;;4.60;;
41233;SDS011;26968;42.686;23.352;2023-07-20T08:56:52;21.95;;;3.35;;
41233;SDS011;26968;42.686;23.352;2023-07-20T08:59:21;12.55;;;3.72;;
41233;SDS011;26968;42.686;23.352;2023-07-20T09:01:49;12.07;;;3.22;;
41233;SDS011;26968;42.686;23.352;2023-07-20T09:04:17;27.95;;;3.78;;
41233;SDS011;26968;42.686;23.352;2023-07-20T09:06:43;18.83;;;3.88;;
41233;SDS011;26968;42.686;23.352;2023-07-20T09:09:08;9.60;;;3.85;;
41233;SDS011;26968;42.686;23.352;2023-07-20T09:11:34;10.35;;;3.92;;
41233;SDS011;26968;42.686;23.352;2023-07-20T09:14:03;16.17;;;3.25;;
41233;SDS011;26968;42.686;23.352;2023-07-20T09:16:29;10.53;;;3.17;;
41233;SDS011;26968;42.686;23.352;2023-07-20T09:18:57;11.25;;;3.42;;
41233;SDS011;26968;42.686;23.352;2023-07-20T09:21:23;15.75;;;3.60;;
41233;SDS011;26968;42.686;23.352;2023-07-20T09:23:54;16.67;;;3.78;;
41233;SDS011;26968;42.686;23.352;2023-07-20T09:26:21;13.90;;;3.72;;
41233;SDS011;26968;42.686;23.352;2023-07-20T09:28:48;12.60;;;3.40;;
41233;SDS011;26968;42.686;23.352;2023-07-20T09:31:19;20.52;;;3.95;;
41233;SDS011;26968;42.686;23.352;2023-07-20T09:33:46;14.80;;;4.22;;
41233;SDS011;26968;42.686;23.352;2023-07-20T09:36:13;14.52;;;4.00;;
41233;SDS011;26968;42.686;23.352;2023-07-20T09:38:42;17.58;;;3.58;;
41233;SDS011;26968;42.686;23.352;2023-07-20T09:41:18;25.83;;;3.90;;
41233;SDS011;26968;42.686;23.352;2023-07-20T09:43:44;21.20;;;3.92;;
41233;SDS011;26968;42.686;23.352;2023-07-20T09:46:10;20.55;;;3.58;;
41233;SDS011;26968;42.686;23.352;2023-07-20T09:48:36;17.25;;;3.85;;
41233;SDS011;26968;42.686;23.352;2023-07-20T09:51:02;14.50;;;3.45;;
41233;SDS011;26968;42.686;23.352;2023-07-20T09:53:30;13.57;;;3.05;;
41233;SDS011;26968;42.686;23.352;2023-07-20T09:55:58;22.15;;;4.13;;
41233;SDS011;26968;42.686;23.352;2023-07-20T09:58:25;12.00;;;3.28;;
41233;SDS011;26968;42.686;23.352;2023-07-20T10:00:51;10.43;;;2.58;;
41233;SDS011;26968;42.686;23.352;2023-07-20T10:03:20;14.18;;;3.03;;
41233;SDS011;26968;42.686;23.352;2023-07-20T10:05:48;12.35;;;3.08;;
41233;SDS011;26968;42.686;23.352;2023-07-20T10:08:19;14.48;;;3.80;;
41233;SDS011;26968;42.686;23.352;2023-07-20T10:10:48;11.63;;;2.95;;
41233;SDS011;26968;42.686;23.352;2023-07-20T10:13:16;9.43;;;3.05;;
41233;SDS011;26968;42.686;23.352;2023-07-20T10:15:46;13.18;;;3.40;;
41233;SDS011;26968;42.686;23.352;2023-07-20T10:18:17;15.05;;;3.38;;
41233;SDS011;26968;42.686;23.352;2023-07-20T10:20:50;14.52;;;3.40;;
41233;SDS011;26968;42.686;23.352;2023-07-20T10:23:19;17.23;;;4.00;;
41233;SDS011;26968;42.686;23.352;2023-07-20T10:25:44;15.45;;;3.53;;
41233;SDS011;26968;42.686;23.352;2023-07-20T10:28:11;15.10;;;3.75;;
41233;SDS011;26968;42.686;23.352;2023-07-20T10:30:38;11.18;;;3.35;;
41233;SDS011;26968;42.686;23.352;2023-07-20T10:33:04;10.75;;;3.10;;
41233;SDS011;26968;42.686;23.352;2023-07-20T10:35:31;12.77;;;3.80;;
41233;SDS011;26968;42.686;23.352;2023-07-20T10:38:15;10.93;;;2.58;;
41233;SDS011;26968;42.686;23.352;2023-07-20T10:40:40;18.58;;;3.45;;
41233;SDS011;26968;42.686;23.352;2023-07-20T10:43:06;13.15;;;4.05;;
41233;SDS011;26968;42.686;23.352;2023-07-20T10:47:58;11.95;;;3.20;;
41233;SDS011;26968;42.686;23.352;2023-07-20T10:50:27;11.60;;;2.50;;
41233;SDS011;26968;42.686;23.352;2023-07-20T10:53:10;10.85;;;3.13;;
41233;SDS011;26968;42.686;23.352;2023-07-20T10:55:44;12.65;;;3.10;;
41233;SDS011;26968;42.686;23.352;2023-07-20T10:58:12;13.10;;;3.78;;
41233;SDS011;26968;42.686;23.352;2023-07-20T11:00:58;15.23;;;3.10;;
41233;SDS011;26968;42.686;23.352;2023-07-20T11:03:33;13.25;;;3.30;;
41233;SDS011;26968;42.686;23.352;2023-07-20T11:09:09;15.00;;;3.42;;
41233;SDS011;26968;42.686;23.352;2023-07-20T11:11:39;21.63;;;3.35;;
41233;SDS011;26968;42.686;23.352;2023-07-20T11:14:07;11.70;;;3.03;;
41233;SDS011;26968;42.686;23.352;2023-07-20T11:16:34;21.63;;;3.85;;
41233;SDS011;26968;42.686;23.352;2023-07-20T11:18:59;13.90;;;4.35;;
41233;SDS011;26968;42.686;23.352;2023-07-20T11:21:25;11.63;;;3.85;;
41233;SDS011;26968;42.686;23.352;2023-07-20T11:23:53;12.07;;;4.20;;
41233;SDS011;26968;42.686;23.352;2023-07-20T11:26:20;13.48;;;3.58;;
41233;SDS011;26968;42.686;23.352;2023-07-20T11:28:49;14.38;;;4.15;;
41233;SDS011;26968;42.686;23.352;2023-07-20T11:31:20;11.32;;;3.47;;
41233;SDS011;26968;42.686;23.352;2023-07-20T11:33:46;12.18;;;3.40;;
41233;SDS011;26968;42.686;23.352;2023-07-20T11:36:11;15.45;;;3.53;;
41233;SDS011;26968;42.686;23.352;2023-07-20T11:38:38;14.05;;;4.20;;
41233;SDS011;26968;42.686;23.352;2023-07-20T11:41:07;12.65;;;3.65;;
41233;SDS011;26968;42.686;23.352;2023-07-20T11:43:32;11.77;;;4.13;;
41233;SDS011;26968;42.686;23.352;2023-07-20T11:45:58;16.60;;;3.65;;
41233;SDS011;26968;42.686;23.352;2023-07-20T11:48:24;11.32;;;3.88;;
41233;SDS011;26968;42.686;23.352;2023-07-20T11:50:49;10.75;;;3.65;;
41233;SDS011;26968;42.686;23.352;2023-07-20T11:53:15;13.73;;;4.22;;
41233;SDS011;26968;42.686;23.352;2023-07-20T11:55:41;14.02;;;4.88;;
41233;SDS011;26968;42.686;23.352;2023-07-20T11:58:07;15.07;;;4.45;;
41233;SDS011;26968;42.686;23.352;2023-07-20T12:00:34;12.25;;;3.63;;
41233;SDS011;26968;42.686;23.352;2023-07-20T12:03:00;15.10;;;4.60;;
41233;SDS011;26968;42.686;23.352;2023-07-20T12:05:26;19.13;;;4.30;;
41233;SDS011;26968;42.686;23.352;2023-07-20T12:07:52;14.48;;;3.67;;
41233;SDS011;26968;42.686;23.352;2023-07-20T12:10:27;14.68;;;4.07;;
41233;SDS011;26968;42.686;23.352;2023-07-20T12:12:53;12.63;;;3.90;;
41233;SDS011;26968;42.686;23.352;2023-07-20T12:17:45;11.13;;;3.92;;
41233;SDS011;26968;42.686;23.352;2023-07-20T12:20:24;13.35;;;3.97;;
41233;SDS011;26968;42.686;23.352;2023-07-20T12:22:51;14.50;;;3.70;;
41233;SDS011;26968;42.686;23.352;2023-07-20T12:25:16;12.35;;;4.30;;
41233;SDS011;26968;42.686;23.352;2023-07-20T12:27:45;9.93;;;2.75;;
41233;SDS011;26968;42.686;23.352;2023-07-20T12:30:10;8.68;;;3.00;;
41233;SDS011;26968;42.686;23.352;2023-07-20T12:32:36;10.15;;;3.90;;
41233;SDS011;26968;42.686;23.352;2023-07-20T12:35:01;16.60;;;3.60;;
41233;SDS011;26968;42.686;23.352;2023-07-20T12:37:27;14.73;;;3.47;;
41233;SDS011;26968;42.686;23.352;2023-07-20T12:39:52;23.42;;;3.83;;
41233;SDS011;26968;42.686;23.352;2023-07-20T12:42:18;9.77;;;3.65;;
41233;SDS011;26968;42.686;23.352;2023-07-20T12:44:43;13.27;;;3.50;;
41233;SDS011;26968;42.686;23.352;2023-07-20T12:47:09;11.45;;;3.45;;
41233;SDS011;26968;42.686;23.352;2023-07-20T12:49:34;14.48;;;3.67;;
41233;SDS011;26968;42.686;23.352;2023-07-20T12:51:59;13.68;;;3.45;;
41233;SDS011;26968;42.686;23.352;2023-07-20T12:54:25;10.40;;;2.88;;
41233;SDS011;26968;42.686;23.352;2023-07-20T12:56:50;14.45;;;3.00;;
41233;SDS011;26968;42.686;23.352;2023-07-20T12:59:15;9.80;;;3.60;;
41233;SDS011;26968;42.686;23.352;2023-07-20T13:01:41;15.35;;;2.85;;
41233;SDS011;26968;42.686;23.352;2023-07-20T13:04:07;6.95;;;3.30;;
41233;SDS011;26968;42.686;23.352;2023-07-20T13:06:34;11.20;;;2.90;;
41233;SDS011;26968;42.686;23.352;2023-07-20T13:09:00;15.02;;;3.45;;
41233;SDS011;26968;42.686;23.352;2023-07-20T13:11:25;10.13;;;3.00;;
41233;SDS011;26968;42.686;23.352;2023-07-20T13:13:51;12.95;;;3.50;;
41233;SDS011;26968;42.686;23.352;2023-07-20T13:16:16;14.82;;;3.53;;
41233;SDS011;26968;42.686;23.352;2023-07-20T13:18:42;11.13;;;2.90;;
41233;SDS011;26968;42.686;23.352;2023-07-20T13:21:07;18.20;;;2.95;;
41233;SDS011;26968;42.686;23.352;2023-07-20T13:23:36;13.00;;;3.22;;
41233;SDS011;26968;42.686;23.352;2023-07-20T13:26:02;8.57;;;3.22;;
41233;SDS011;26968;42.686;23.352;2023-07-20T13:28:28;11.63;;;2.90;;
41233;SDS011;26968;42.686;23.352;2023-07-20T13:30:53;11.43;;;3.22;;
41233;SDS011;26968;42.686;23.352;2023-07-20T13:33:19;12.20;;;3.08;;
41233;SDS011;26968;42.686;23.352;2023-07-20T13:35:45;12.68;;;2.95;;
41233;SDS011;26968;42.686;23.352;2023-07-20T13:38:10;14.27;;;2.78;;
41233;SDS011;26968;42.686;23.352;2023-07-20T13:40:36;12.48;;;2.97;;
41233;SDS011;26968;42.686;23.352;2023-07-20T13:43:02;9.35;;;3.13;;
41233;SDS011;26968;42.686;23.352;2023-07-20T13:45:27;9.98;;;2.90;;
41233;SDS011;26968;42.686;23.352;2023-07-20T13:47:52;13.48;;;3.53;;
41233;SDS011;26968;42.686;23.352;2023-07-20T13:50:18;11.85;;;3.47;;
41233;SDS011;26968;42.686;23.352;2023-07-20T13:52:43;9.52;;;2.78;;
41233;SDS011;26968;42.686;23.352;2023-07-20T13:55:09;16.92;;;3.63;;
41233;SDS011;26968;42.686;23.352;2023-07-20T13:57:34;11.63;;;3.03;;
41233;SDS011;26968;42.686;23.352;2023-07-20T13:59:59;14.68;;;2.80;;
41233;SDS011;26968;42.686;23.352;2023-07-20T14:02:26;11.20;;;3.28;;
41233;SDS011;26968;42.686;23.352;2023-07-20T14:04:52;12.18;;;3.65;;
41233;SDS011;26968;42.686;23.352;2023-07-20T14:07:20;11.85;;;2.50;;
41233;SDS011;26968;42.686;23.352;2023-07-20T14:09:46;15.30;;;3.65;;
41233;SDS011;26968;42.686;23.352;2023-07-20T14:12:12;10.63;;;2.95;;
41233;SDS011;26968;42.686;23.352;2023-07-20T14:14:39;19.23;;;2.90;;
41233;SDS011;26968;42.686;23.352;2023-07-20T14:17:07;12.30;;;3.13;;
41233;SDS011;26968;42.686;23.352;2023-07-20T14:19:32;6.50;;;3.25;;
41233;SDS011;26968;42.686;23.352;2023-07-20T14:21:58;12.88;;;2.90;;
41233;SDS011;26968;42.686;23.352;2023-07-20T14:24:25;10.07;;;2.90;;
41233;SDS011;26968;42.686;23.352;2023-07-20T14:26:51;9.80;;;2.85;;
41233;SDS011;26968;42.686;23.352;2023-07-20T14:29:16;18.17;;;3.42;;
41233;SDS011;26968;42.686;23.352;2023-07-20T14:31:43;20.35;;;3.08;;
41233;SDS011;26968;42.686;23.352;2023-07-20T14:34:09;12.05;;;2.75;;
41233;SDS011;26968;42.686;23.352;2023-07-20T14:36:34;12.00;;;3.00;;
41233;SDS011;26968;42.686;23.352;2023-07-20T14:39:00;16.90;;;3.33;;
41233;SDS011;26968;42.686;23.352;2023-07-20T14:41:26;16.45;;;3.53;;
41233;SDS011;26968;42.686;23.352;2023-07-20T14:43:51;14.18;;;3.17;;
41233;SDS011;26968;42.686;23.352;2023-07-20T14:46:17;8.38;;;2.65;;